sensor_id;sensor_type;location;lat;lon;timestamp;temperature;humidity
63260;DHT22;49390;51.380;0.098;2022-10-22T00:01:13;15.30;99.90
63260;DHT22;49390;51.380;0.098;2022-10-22T00:03:42;15.30;99.90
63260;DHT22;49390;51.380;0.098;2022-10-22T00:06:09;15.30;99.90
63260;DHT22;49390;51.380;0.098;2022-10-22T00:08:38;15.30;99.90
63260;DHT22;49390;51.380;0.098;2022-10-22T00:11:14;15.20;99.90
63260;DHT22;49390;51.380;0.098;2022-10-22T00:13:43;15.20;99.90
63260;DHT22;49390;51.380;0.098;2022-10-22T00:16:16;15.20;99.90
63260;DHT22;49390;51.380;0.098;2022-10-22T00:18:44;15.20;99.90
63260;DHT22;49390;51.380;0.098;2022-10-22T00:21:12;15.20;99.90
63260;DHT22;49390;51.380;0.098;2022-10-22T00:23:43;15.20;99.90
63260;DHT22;49390;51.380;0.098;2022-10-22T00:26:14;15.20;99.90
63260;DHT22;49390;51.380;0.098;2022-10-22T00:28:42;15.10;99.90
63260;DHT22;49390;51.380;0.098;2022-10-22T00:31:13;15.10;99.90
63260;DHT22;49390;51.380;0.098;2022-10-22T00:33:48;15.10;99.90
63260;DHT22;49390;51.380;0.098;2022-10-22T00:36:16;15.10;99.90
63260;DHT22;49390;51.380;0.098;2022-10-22T00:38:44;15.10;99.90
63260;DHT22;49390;51.380;0.098;2022-10-22T00:41:13;15.10;99.90
63260;DHT22;49390;51.380;0.098;2022-10-22T00:43:57;15.10;99.90
63260;DHT22;49390;51.380;0.098;2022-10-22T00:46:26;15.10;99.90
63260;DHT22;49390;51.380;0.098;2022-10-22T00:48:57;15.10;99.90
63260;DHT22;49390;51.380;0.098;2022-10-22T00:51:29;15.20;99.90
63260;DHT22;49390;51.380;0.098;2022-10-22T00:54:02;15.20;99.90
63260;DHT22;49390;51.380;0.098;2022-10-22T00:56:31;15.20;99.90
63260;DHT22;49390;51.380;0.098;2022-10-22T00:59:02;15.20;99.90
63260;DHT22;49390;51.380;0.098;2022-10-22T01:01:30;15.20;99.90
63260;DHT22;49390;51.380;0.098;2022-10-22T01:03:59;15.10;99.90
63260;DHT22;49390;51.380;0.098;2022-10-22T01:06:29;15.10;99.90
63260;DHT22;49390;51.380;0.098;2022-10-22T01:25:36;15.10;99.90
63260;DHT22;49390;51.380;0.098;2022-10-22T01:30:58;15.00;99.90
63260;DHT22;49390;51.380;0.098;2022-10-22T01:33:30;15.00;99.90
63260;DHT22;49390;51.380;0.098;2022-10-22T01:35:59;14.90;99.90
63260;DHT22;49390;51.380;0.098;2022-10-22T01:38:28;14.90;99.90
63260;DHT22;49390;51.380;0.098;2022-10-22T01:40:58;14.90;99.90
63260;DHT22;49390;51.380;0.098;2022-10-22T01:43:26;14.80;99.90
63260;DHT22;49390;51.380;0.098;2022-10-22T01:45:58;14.80;99.90
63260;DHT22;49390;51.380;0.098;2022-10-22T01:54:26;14.80;99.90
63260;DHT22;49390;51.380;0.098;2022-10-22T01:59:51;14.80;99.90
63260;DHT22;49390;51.380;0.098;2022-10-22T02:07:42;14.90;99.90
63260;DHT22;49390;51.380;0.098;2022-10-22T02:10:11;14.90;99.90
63260;DHT22;49390;51.380;0.098;2022-10-22T02:12:41;14.90;99.90
63260;DHT22;49390;51.380;0.098;2022-10-22T02:15:11;14.90;99.90
63260;DHT22;49390;51.380;0.098;2022-10-22T02:17:42;14.90;99.90
63260;DHT22;49390;51.380;0.098;2022-10-22T02:20:27;14.90;99.90
63260;DHT22;49390;51.380;0.098;2022-10-22T02:22:56;14.90;99.90
63260;DHT22;49390;51.380;0.098;2022-10-22T02:25:29;14.90;99.90
63260;DHT22;49390;51.380;0.098;2022-10-22T02:28:26;14.90;99.90
63260;DHT22;49390;51.380;0.098;2022-10-22T02:31:00;14.90;99.90
63260;DHT22;49390;51.380;0.098;2022-10-22T02:33:36;14.90;99.90
63260;DHT22;49390;51.380;0.098;2022-10-22T02:36:06;14.90;99.90
63260;DHT22;49390;51.380;0.098;2022-10-22T02:38:35;14.80;99.90
63260;DHT22;49390;51.380;0.098;2022-10-22T02:41:04;14.80;99.90
63260;DHT22;49390;51.380;0.098;2022-10-22T02:43:39;14.80;99.90
63260;DHT22;49390;51.380;0.098;2022-10-22T02:46:08;14.80;99.90
63260;DHT22;49390;51.380;0.098;2022-10-22T02:48:37;14.80;99.90
63260;DHT22;49390;51.380;0.098;2022-10-22T02:51:05;14.80;99.90
63260;DHT22;49390;51.380;0.098;2022-10-22T02:53:33;14.80;99.90
63260;DHT22;49390;51.380;0.098;2022-10-22T02:56:01;14.80;99.90
63260;DHT22;49390;51.380;0.098;2022-10-22T02:58:30;14.80;99.90
63260;DHT22;49390;51.380;0.098;2022-10-22T03:00:58;14.80;99.90
63260;DHT22;49390;51.380;0.098;2022-10-22T03:03:27;14.80;99.90
63260;DHT22;49390;51.380;0.098;2022-10-22T03:05:55;14.80;99.90
63260;DHT22;49390;51.380;0.098;2022-10-22T03:08:23;14.80;99.90
63260;DHT22;49390;51.380;0.098;2022-10-22T03:10:52;14.80;99.90
63260;DHT22;49390;51.380;0.098;2022-10-22T03:13:20;14.80;99.90
63260;DHT22;49390;51.380;0.098;2022-10-22T03:15:49;14.80;99.90
63260;DHT22;49390;51.380;0.098;2022-10-22T03:18:17;14.80;99.90
63260;DHT22;49390;51.380;0.098;2022-10-22T03:20:46;14.80;99.90
63260;DHT22;49390;51.380;0.098;2022-10-22T03:23:17;14.80;99.90
63260;DHT22;49390;51.380;0.098;2022-10-22T03:25:48;14.80;99.90
63260;DHT22;49390;51.380;0.098;2022-10-22T03:28:17;14.80;99.90
63260;DHT22;49390;51.380;0.098;2022-10-22T03:30:45;14.80;99.90
63260;DHT22;49390;51.380;0.098;2022-10-22T03:33:13;14.80;99.90
63260;DHT22;49390;51.380;0.098;2022-10-22T03:35:43;14.80;99.90
63260;DHT22;49390;51.380;0.098;2022-10-22T03:38:16;14.70;99.90
63260;DHT22;49390;51.380;0.098;2022-10-22T03:40:45;14.70;99.90
63260;DHT22;49390;51.380;0.098;2022-10-22T03:43:15;14.80;99.90
63260;DHT22;49390;51.380;0.098;2022-10-22T03:45:42;14.80;99.90
63260;DHT22;49390;51.380;0.098;2022-10-22T03:48:11;14.80;99.90
63260;DHT22;49390;51.380;0.098;2022-10-22T03:50:39;14.70;99.90
63260;DHT22;49390;51.380;0.098;2022-10-22T03:53:07;14.70;99.90
63260;DHT22;49390;51.380;0.098;2022-10-22T03:55:39;14.70;99.90
63260;DHT22;49390;51.380;0.098;2022-10-22T03:58:08;14.80;99.90
63260;DHT22;49390;51.380;0.098;2022-10-22T04:00:38;14.80;99.90
63260;DHT22;49390;51.380;0.098;2022-10-22T04:03:07;14.70;99.90
63260;DHT22;49390;51.380;0.098;2022-10-22T04:05:35;14.70;99.90
63260;DHT22;49390;51.380;0.098;2022-10-22T04:08:03;14.60;99.90
63260;DHT22;49390;51.380;0.098;2022-10-22T04:10:31;14.70;99.90
63260;DHT22;49390;51.380;0.098;2022-10-22T04:12:59;14.60;99.90
63260;DHT22;49390;51.380;0.098;2022-10-22T04:15:27;14.50;99.90
63260;DHT22;49390;51.380;0.098;2022-10-22T04:17:55;14.50;99.90
63260;DHT22;49390;51.380;0.098;2022-10-22T04:20:23;14.50;99.90
63260;DHT22;49390;51.380;0.098;2022-10-22T04:22:52;14.40;99.90
63260;DHT22;49390;51.380;0.098;2022-10-22T04:25:20;14.40;99.90
63260;DHT22;49390;51.380;0.098;2022-10-22T04:27:48;14.30;99.90
63260;DHT22;49390;51.380;0.098;2022-10-22T04:30:16;14.30;99.90
63260;DHT22;49390;51.380;0.098;2022-10-22T04:32:44;14.30;99.90
63260;DHT22;49390;51.380;0.098;2022-10-22T04:35:14;14.20;99.90
63260;DHT22;49390;51.380;0.098;2022-10-22T04:37:42;14.20;99.90
63260;DHT22;49390;51.380;0.098;2022-10-22T04:40:11;14.20;99.90
63260;DHT22;49390;51.380;0.098;2022-10-22T04:42:39;14.10;99.90
63260;DHT22;49390;51.380;0.098;2022-10-22T04:45:10;14.10;99.90
63260;DHT22;49390;51.380;0.098;2022-10-22T04:47:38;14.10;99.90
63260;DHT22;49390;51.380;0.098;2022-10-22T04:50:07;14.00;99.90
63260;DHT22;49390;51.380;0.098;2022-10-22T04:52:35;14.00;99.90
63260;DHT22;49390;51.380;0.098;2022-10-22T04:55:03;14.00;99.90
63260;DHT22;49390;51.380;0.098;2022-10-22T04:57:32;14.00;99.90
63260;DHT22;49390;51.380;0.098;2022-10-22T05:00:00;13.90;99.90
63260;DHT22;49390;51.380;0.098;2022-10-22T05:02:29;13.90;99.90
63260;DHT22;49390;51.380;0.098;2022-10-22T05:04:57;13.90;99.90
63260;DHT22;49390;51.380;0.098;2022-10-22T05:07:25;13.80;99.90
63260;DHT22;49390;51.380;0.098;2022-10-22T05:09:53;13.80;99.90
63260;DHT22;49390;51.380;0.098;2022-10-22T05:12:21;13.80;99.90
63260;DHT22;49390;51.380;0.098;2022-10-22T05:14:49;13.70;99.90
63260;DHT22;49390;51.380;0.098;2022-10-22T05:17:18;13.70;99.90
63260;DHT22;49390;51.380;0.098;2022-10-22T05:19:47;13.70;99.90
63260;DHT22;49390;51.380;0.098;2022-10-22T05:22:15;13.70;99.90
63260;DHT22;49390;51.380;0.098;2022-10-22T05:24:42;13.60;99.90
63260;DHT22;49390;51.380;0.098;2022-10-22T05:27:11;13.60;99.90
63260;DHT22;49390;51.380;0.098;2022-10-22T05:29:38;13.60;99.90
63260;DHT22;49390;51.380;0.098;2022-10-22T05:32:07;13.60;99.90
63260;DHT22;49390;51.380;0.098;2022-10-22T05:34:35;13.60;99.90
63260;DHT22;49390;51.380;0.098;2022-10-22T05:37:03;13.60;99.90
63260;DHT22;49390;51.380;0.098;2022-10-22T05:39:31;13.50;99.90
63260;DHT22;49390;51.380;0.098;2022-10-22T05:42:04;13.50;99.90
63260;DHT22;49390;51.380;0.098;2022-10-22T05:44:33;13.50;99.90
63260;DHT22;49390;51.380;0.098;2022-10-22T05:47:01;13.40;99.90
63260;DHT22;49390;51.380;0.098;2022-10-22T05:49:29;13.50;99.90
63260;DHT22;49390;51.380;0.098;2022-10-22T05:51:58;13.40;99.90
63260;DHT22;49390;51.380;0.098;2022-10-22T05:54:27;13.40;99.90
63260;DHT22;49390;51.380;0.098;2022-10-22T05:56:55;13.40;99.90
63260;DHT22;49390;51.380;0.098;2022-10-22T05:59:23;13.40;99.90
63260;DHT22;49390;51.380;0.098;2022-10-22T06:01:51;13.30;99.90
63260;DHT22;49390;51.380;0.098;2022-10-22T06:04:19;13.30;99.90
63260;DHT22;49390;51.380;0.098;2022-10-22T06:06:50;13.30;99.90
63260;DHT22;49390;51.380;0.098;2022-10-22T06:09:40;13.30;99.90
63260;DHT22;49390;51.380;0.098;2022-10-22T06:12:11;13.30;99.90
63260;DHT22;49390;51.380;0.098;2022-10-22T06:14:40;13.30;99.90
63260;DHT22;49390;51.380;0.098;2022-10-22T06:17:08;13.30;99.90
63260;DHT22;49390;51.380;0.098;2022-10-22T06:19:41;13.20;99.90
63260;DHT22;49390;51.380;0.098;2022-10-22T06:22:09;13.20;99.90
63260;DHT22;49390;51.380;0.098;2022-10-22T06:24:37;13.20;99.90
63260;DHT22;49390;51.380;0.098;2022-10-22T06:27:11;13.20;99.90
63260;DHT22;49390;51.380;0.098;2022-10-22T06:29:39;13.20;99.90
63260;DHT22;49390;51.380;0.098;2022-10-22T06:32:07;13.20;99.90
63260;DHT22;49390;51.380;0.098;2022-10-22T06:34:36;13.20;99.90
63260;DHT22;49390;51.380;0.098;2022-10-22T06:37:04;13.20;99.90
63260;DHT22;49390;51.380;0.098;2022-10-22T06:39:32;13.20;99.90
63260;DHT22;49390;51.380;0.098;2022-10-22T06:42:00;13.20;99.90
63260;DHT22;49390;51.380;0.098;2022-10-22T06:44:33;13.20;99.90
63260;DHT22;49390;51.380;0.098;2022-10-22T06:47:02;13.20;99.90
63260;DHT22;49390;51.380;0.098;2022-10-22T06:49:29;13.20;99.90
63260;DHT22;49390;51.380;0.098;2022-10-22T06:51:58;13.20;99.90
63260;DHT22;49390;51.380;0.098;2022-10-22T06:54:26;13.20;99.90
63260;DHT22;49390;51.380;0.098;2022-10-22T06:56:54;13.20;99.90
63260;DHT22;49390;51.380;0.098;2022-10-22T06:59:22;13.30;99.90
63260;DHT22;49390;51.380;0.098;2022-10-22T07:01:50;13.30;99.90
63260;DHT22;49390;51.380;0.098;2022-10-22T07:04:18;13.30;99.90
63260;DHT22;49390;51.380;0.098;2022-10-22T07:06:47;13.30;99.90
63260;DHT22;49390;51.380;0.098;2022-10-22T07:09:15;13.30;99.90
63260;DHT22;49390;51.380;0.098;2022-10-22T07:11:44;13.40;99.90
63260;DHT22;49390;51.380;0.098;2022-10-22T07:14:13;13.40;99.90
63260;DHT22;49390;51.380;0.098;2022-10-22T07:16:42;13.40;99.90
63260;DHT22;49390;51.380;0.098;2022-10-22T07:19:12;13.40;99.90
63260;DHT22;49390;51.380;0.098;2022-10-22T07:21:40;13.50;99.90
63260;DHT22;49390;51.380;0.098;2022-10-22T07:24:08;13.50;99.90
63260;DHT22;49390;51.380;0.098;2022-10-22T07:26:36;13.60;99.90
63260;DHT22;49390;51.380;0.098;2022-10-22T07:29:05;13.60;99.90
63260;DHT22;49390;51.380;0.098;2022-10-22T07:31:34;13.70;99.90
63260;DHT22;49390;51.380;0.098;2022-10-22T07:34:02;13.80;99.90
63260;DHT22;49390;51.380;0.098;2022-10-22T07:36:31;13.80;99.90
63260;DHT22;49390;51.380;0.098;2022-10-22T07:38:59;13.90;99.90
63260;DHT22;49390;51.380;0.098;2022-10-22T07:41:28;13.90;99.90
63260;DHT22;49390;51.380;0.098;2022-10-22T07:43:58;14.00;99.90
63260;DHT22;49390;51.380;0.098;2022-10-22T07:46:26;14.00;99.90
63260;DHT22;49390;51.380;0.098;2022-10-22T07:48:54;14.00;99.90
63260;DHT22;49390;51.380;0.098;2022-10-22T07:51:22;14.10;99.90
63260;DHT22;49390;51.380;0.098;2022-10-22T07:53:50;14.10;99.90
63260;DHT22;49390;51.380;0.098;2022-10-22T07:56:18;14.10;99.90
63260;DHT22;49390;51.380;0.098;2022-10-22T07:58:46;14.10;99.90
63260;DHT22;49390;51.380;0.098;2022-10-22T08:01:15;14.10;99.90
63260;DHT22;49390;51.380;0.098;2022-10-22T08:03:44;14.10;99.90
63260;DHT22;49390;51.380;0.098;2022-10-22T08:06:13;14.10;99.90
63260;DHT22;49390;51.380;0.098;2022-10-22T08:08:42;14.10;99.90
63260;DHT22;49390;51.380;0.098;2022-10-22T08:11:12;14.20;99.90
63260;DHT22;49390;51.380;0.098;2022-10-22T08:13:41;14.10;99.90
63260;DHT22;49390;51.380;0.098;2022-10-22T08:16:13;14.20;99.90
63260;DHT22;49390;51.380;0.098;2022-10-22T08:18:41;14.10;99.90
63260;DHT22;49390;51.380;0.098;2022-10-22T08:21:11;14.20;99.90
63260;DHT22;49390;51.380;0.098;2022-10-22T08:23:39;14.20;99.90
63260;DHT22;49390;51.380;0.098;2022-10-22T08:26:10;14.20;99.90
63260;DHT22;49390;51.380;0.098;2022-10-22T08:28:38;14.20;99.90
63260;DHT22;49390;51.380;0.098;2022-10-22T08:31:07;14.30;99.90
63260;DHT22;49390;51.380;0.098;2022-10-22T08:33:36;14.30;99.90
63260;DHT22;49390;51.380;0.098;2022-10-22T08:36:06;14.30;99.90
63260;DHT22;49390;51.380;0.098;2022-10-22T08:38:34;14.30;99.90
63260;DHT22;49390;51.380;0.098;2022-10-22T08:41:09;14.40;99.90
63260;DHT22;49390;51.380;0.098;2022-10-22T08:43:43;14.40;99.90
63260;DHT22;49390;51.380;0.098;2022-10-22T08:46:37;14.50;99.90
63260;DHT22;49390;51.380;0.098;2022-10-22T08:49:20;14.50;99.90
63260;DHT22;49390;51.380;0.098;2022-10-22T08:51:49;14.50;99.90
63260;DHT22;49390;51.380;0.098;2022-10-22T08:54:31;14.60;99.90
63260;DHT22;49390;51.380;0.098;2022-10-22T09:07:56;14.90;99.90
63260;DHT22;49390;51.380;0.098;2022-10-22T09:10:28;14.90;99.90
63260;DHT22;49390;51.380;0.098;2022-10-22T09:12:58;15.00;99.90
63260;DHT22;49390;51.380;0.098;2022-10-22T09:15:28;15.10;99.90
63260;DHT22;49390;51.380;0.098;2022-10-22T09:18:25;15.10;99.90
63260;DHT22;49390;51.380;0.098;2022-10-22T09:21:52;15.30;99.90
63260;DHT22;49390;51.380;0.098;2022-10-22T09:26:50;15.50;99.90
63260;DHT22;49390;51.380;0.098;2022-10-22T09:29:24;15.50;99.90
63260;DHT22;49390;51.380;0.098;2022-10-22T09:31:57;15.70;99.90
63260;DHT22;49390;51.380;0.098;2022-10-22T09:34:25;15.80;99.90
63260;DHT22;49390;51.380;0.098;2022-10-22T09:37:09;15.90;99.90
63260;DHT22;49390;51.380;0.098;2022-10-22T09:39:48;16.00;99.90
63260;DHT22;49390;51.380;0.098;2022-10-22T09:42:19;16.20;99.90
63260;DHT22;49390;51.380;0.098;2022-10-22T09:44:53;16.20;99.90
63260;DHT22;49390;51.380;0.098;2022-10-22T09:47:31;16.30;99.90
63260;DHT22;49390;51.380;0.098;2022-10-22T09:50:37;16.40;99.90
63260;DHT22;49390;51.380;0.098;2022-10-22T09:53:18;16.50;99.90
63260;DHT22;49390;51.380;0.098;2022-10-22T09:55:58;16.60;99.90
63260;DHT22;49390;51.380;0.098;2022-10-22T09:58:27;16.60;99.90
63260;DHT22;49390;51.380;0.098;2022-10-22T10:00:58;16.70;99.90
63260;DHT22;49390;51.380;0.098;2022-10-22T10:03:30;16.70;99.90
63260;DHT22;49390;51.380;0.098;2022-10-22T10:06:00;16.70;99.90
63260;DHT22;49390;51.380;0.098;2022-10-22T10:08:32;16.80;99.90
63260;DHT22;49390;51.380;0.098;2022-10-22T10:14:12;16.90;99.90
63260;DHT22;49390;51.380;0.098;2022-10-22T10:16:57;16.90;99.90
63260;DHT22;49390;51.380;0.098;2022-10-22T10:19:50;17.00;99.90
63260;DHT22;49390;51.380;0.098;2022-10-22T10:25:11;17.10;99.90
63260;DHT22;49390;51.380;0.098;2022-10-22T10:30:30;17.20;99.90
63260;DHT22;49390;51.380;0.098;2022-10-22T10:44:48;17.40;99.90
63260;DHT22;49390;51.380;0.098;2022-10-22T10:47:44;17.50;99.90
63260;DHT22;49390;51.380;0.098;2022-10-22T10:55:48;17.60;99.90
63260;DHT22;49390;51.380;0.098;2022-10-22T11:01:23;17.60;99.90
63260;DHT22;49390;51.380;0.098;2022-10-22T11:06:25;17.60;99.90
63260;DHT22;49390;51.380;0.098;2022-10-22T11:12:01;17.70;99.90
63260;DHT22;49390;51.380;0.098;2022-10-22T11:14:50;17.70;99.90
63260;DHT22;49390;51.380;0.098;2022-10-22T11:17:22;17.80;99.90
63260;DHT22;49390;51.380;0.098;2022-10-22T11:20:06;17.90;99.90
63260;DHT22;49390;51.380;0.098;2022-10-22T11:22:49;17.90;99.90
63260;DHT22;49390;51.380;0.098;2022-10-22T11:25:50;17.90;99.90
63260;DHT22;49390;51.380;0.098;2022-10-22T11:28:42;18.00;99.90
63260;DHT22;49390;51.380;0.098;2022-10-22T11:31:16;18.10;99.90
63260;DHT22;49390;51.380;0.098;2022-10-22T11:33:53;18.10;99.90
63260;DHT22;49390;51.380;0.098;2022-10-22T11:36:38;18.20;99.90
63260;DHT22;49390;51.380;0.098;2022-10-22T11:39:13;18.20;99.90
63260;DHT22;49390;51.380;0.098;2022-10-22T11:41:54;18.30;99.90
63260;DHT22;49390;51.380;0.098;2022-10-22T11:44:24;18.30;99.90
63260;DHT22;49390;51.380;0.098;2022-10-22T11:47:08;18.40;99.90
63260;DHT22;49390;51.380;0.098;2022-10-22T11:49:54;18.50;99.90
63260;DHT22;49390;51.380;0.098;2022-10-22T11:52:37;18.70;99.90
63260;DHT22;49390;51.380;0.098;2022-10-22T12:11:40;19.00;99.90
63260;DHT22;49390;51.380;0.098;2022-10-22T12:14:22;19.00;99.90
63260;DHT22;49390;51.380;0.098;2022-10-22T12:17:06;19.00;99.90
63260;DHT22;49390;51.380;0.098;2022-10-22T12:19:38;18.90;99.90
63260;DHT22;49390;51.380;0.098;2022-10-22T12:22:17;18.90;99.90
63260;DHT22;49390;51.380;0.098;2022-10-22T12:24:48;18.90;99.90
63260;DHT22;49390;51.380;0.098;2022-10-22T12:27:22;18.90;99.90
63260;DHT22;49390;51.380;0.098;2022-10-22T12:29:59;18.90;99.90
63260;DHT22;49390;51.380;0.098;2022-10-22T12:32:34;18.80;99.90
63260;DHT22;49390;51.380;0.098;2022-10-22T12:35:06;18.80;99.90
63260;DHT22;49390;51.380;0.098;2022-10-22T12:37:36;18.80;99.90
63260;DHT22;49390;51.380;0.098;2022-10-22T12:40:28;18.90;99.90
63260;DHT22;49390;51.380;0.098;2022-10-22T12:43:12;19.00;99.90
63260;DHT22;49390;51.380;0.098;2022-10-22T12:45:43;19.00;99.90
63260;DHT22;49390;51.380;0.098;2022-10-22T12:48:21;19.00;99.90
63260;DHT22;49390;51.380;0.098;2022-10-22T12:50:57;19.00;99.90
63260;DHT22;49390;51.380;0.098;2022-10-22T12:53:30;18.90;99.90
63260;DHT22;49390;51.380;0.098;2022-10-22T12:56:03;18.90;99.90
63260;DHT22;49390;51.380;0.098;2022-10-22T13:01:10;18.80;99.90
63260;DHT22;49390;51.380;0.098;2022-10-22T13:04:01;18.80;99.90
63260;DHT22;49390;51.380;0.098;2022-10-22T13:06:33;18.70;99.90
63260;DHT22;49390;51.380;0.098;2022-10-22T13:11:48;18.50;99.90
63260;DHT22;49390;51.380;0.098;2022-10-22T13:19:49;18.30;99.90
63260;DHT22;49390;51.380;0.098;2022-10-22T13:22:36;18.20;99.90
63260;DHT22;49390;51.380;0.098;2022-10-22T13:28:11;18.20;99.90
63260;DHT22;49390;51.380;0.098;2022-10-22T13:30:35;18.20;99.90
63260;DHT22;49390;51.380;0.098;2022-10-22T13:33:28;18.10;99.90
63260;DHT22;49390;51.380;0.098;2022-10-22T13:35:57;18.00;99.90
63260;DHT22;49390;51.380;0.098;2022-10-22T13:38:26;18.00;99.90
63260;DHT22;49390;51.380;0.098;2022-10-22T13:40:55;17.90;99.90
63260;DHT22;49390;51.380;0.098;2022-10-22T13:43:24;17.80;99.90
63260;DHT22;49390;51.380;0.098;2022-10-22T13:45:56;17.70;99.90
63260;DHT22;49390;51.380;0.098;2022-10-22T13:48:25;17.70;99.90
63260;DHT22;49390;51.380;0.098;2022-10-22T13:50:54;17.80;99.90
63260;DHT22;49390;51.380;0.098;2022-10-22T13:53:26;17.80;99.90
63260;DHT22;49390;51.380;0.098;2022-10-22T13:55:55;17.90;99.90
63260;DHT22;49390;51.380;0.098;2022-10-22T13:58:23;17.90;99.90
63260;DHT22;49390;51.380;0.098;2022-10-22T14:00:55;18.00;99.90
63260;DHT22;49390;51.380;0.098;2022-10-22T14:03:30;18.10;99.90
63260;DHT22;49390;51.380;0.098;2022-10-22T14:05:59;18.10;99.90
63260;DHT22;49390;51.380;0.098;2022-10-22T14:08:27;18.20;99.90
63260;DHT22;49390;51.380;0.098;2022-10-22T14:10:56;18.20;99.90
63260;DHT22;49390;51.380;0.098;2022-10-22T14:13:24;18.20;99.90
63260;DHT22;49390;51.380;0.098;2022-10-22T14:15:53;18.60;99.90
63260;DHT22;49390;51.380;0.098;2022-10-22T14:18:26;18.20;99.90
63260;DHT22;49390;51.380;0.098;2022-10-22T14:21:00;18.20;99.90
63260;DHT22;49390;51.380;0.098;2022-10-22T14:23:32;18.30;99.90
63260;DHT22;49390;51.380;0.098;2022-10-22T14:26:01;18.30;99.90
63260;DHT22;49390;51.380;0.098;2022-10-22T14:28:29;18.30;99.90
63260;DHT22;49390;51.380;0.098;2022-10-22T14:31:09;18.30;99.90
63260;DHT22;49390;51.380;0.098;2022-10-22T14:33:38;18.30;99.90
63260;DHT22;49390;51.380;0.098;2022-10-22T14:36:10;18.20;99.90
63260;DHT22;49390;51.380;0.098;2022-10-22T14:38:40;18.20;99.90
63260;DHT22;49390;51.380;0.098;2022-10-22T14:41:18;18.10;99.90
63260;DHT22;49390;51.380;0.098;2022-10-22T14:43:47;18.10;99.90
63260;DHT22;49390;51.380;0.098;2022-10-22T14:46:17;18.00;99.90
63260;DHT22;49390;51.380;0.098;2022-10-22T14:48:46;18.00;99.90
63260;DHT22;49390;51.380;0.098;2022-10-22T14:51:16;17.90;99.90
63260;DHT22;49390;51.380;0.098;2022-10-22T14:53:45;17.90;99.90
63260;DHT22;49390;51.380;0.098;2022-10-22T14:56:16;17.90;99.90
63260;DHT22;49390;51.380;0.098;2022-10-22T14:58:45;17.90;99.90
63260;DHT22;49390;51.380;0.098;2022-10-22T15:01:13;17.90;99.90
63260;DHT22;49390;51.380;0.098;2022-10-22T15:03:41;17.90;99.90
63260;DHT22;49390;51.380;0.098;2022-10-22T15:06:10;17.90;99.90
63260;DHT22;49390;51.380;0.098;2022-10-22T15:08:38;17.90;99.90
63260;DHT22;49390;51.380;0.098;2022-10-22T15:11:16;17.90;99.90
63260;DHT22;49390;51.380;0.098;2022-10-22T15:13:50;17.90;99.90
63260;DHT22;49390;51.380;0.098;2022-10-22T15:16:20;17.90;99.90
63260;DHT22;49390;51.380;0.098;2022-10-22T15:18:48;17.90;99.90
63260;DHT22;49390;51.380;0.098;2022-10-22T15:21:19;17.80;99.90
63260;DHT22;49390;51.380;0.098;2022-10-22T15:23:47;17.80;99.90
63260;DHT22;49390;51.380;0.098;2022-10-22T15:26:16;17.80;99.90
63260;DHT22;49390;51.380;0.098;2022-10-22T15:28:44;17.80;99.90
63260;DHT22;49390;51.380;0.098;2022-10-22T15:31:13;17.70;99.90
63260;DHT22;49390;51.380;0.098;2022-10-22T15:33:42;17.70;99.90
63260;DHT22;49390;51.380;0.098;2022-10-22T15:36:13;17.70;99.90
63260;DHT22;49390;51.380;0.098;2022-10-22T15:38:42;17.70;99.90
63260;DHT22;49390;51.380;0.098;2022-10-22T15:41:11;17.60;99.90
63260;DHT22;49390;51.380;0.098;2022-10-22T15:43:40;17.60;99.90
63260;DHT22;49390;51.380;0.098;2022-10-22T15:46:14;17.50;99.90
63260;DHT22;49390;51.380;0.098;2022-10-22T15:48:43;17.50;99.90
63260;DHT22;49390;51.380;0.098;2022-10-22T15:51:16;17.40;99.90
63260;DHT22;49390;51.380;0.098;2022-10-22T15:53:52;17.40;99.90
63260;DHT22;49390;51.380;0.098;2022-10-22T15:56:22;17.30;99.90
63260;DHT22;49390;51.380;0.098;2022-10-22T15:58:56;17.30;99.90
63260;DHT22;49390;51.380;0.098;2022-10-22T16:01:26;17.30;99.90
63260;DHT22;49390;51.380;0.098;2022-10-22T16:03:54;17.20;99.90
63260;DHT22;49390;51.380;0.098;2022-10-22T16:06:37;17.10;99.90
63260;DHT22;49390;51.380;0.098;2022-10-22T16:09:08;17.10;99.90
63260;DHT22;49390;51.380;0.098;2022-10-22T16:11:37;17.10;99.90
63260;DHT22;49390;51.380;0.098;2022-10-22T16:14:05;17.10;99.90
63260;DHT22;49390;51.380;0.098;2022-10-22T16:16:35;17.00;99.90
63260;DHT22;49390;51.380;0.098;2022-10-22T16:19:03;17.00;99.90
63260;DHT22;49390;51.380;0.098;2022-10-22T16:21:34;16.90;99.90
63260;DHT22;49390;51.380;0.098;2022-10-22T16:24:02;16.90;99.90
63260;DHT22;49390;51.380;0.098;2022-10-22T16:26:34;16.90;99.90
63260;DHT22;49390;51.380;0.098;2022-10-22T16:29:03;16.80;99.90
63260;DHT22;49390;51.380;0.098;2022-10-22T16:31:32;16.80;99.90
63260;DHT22;49390;51.380;0.098;2022-10-22T16:34:00;16.70;99.90
63260;DHT22;49390;51.380;0.098;2022-10-22T16:36:30;16.80;99.90
63260;DHT22;49390;51.380;0.098;2022-10-22T16:38:58;16.70;99.90
63260;DHT22;49390;51.380;0.098;2022-10-22T16:41:26;16.60;99.90
63260;DHT22;49390;51.380;0.098;2022-10-22T16:44:06;16.60;99.90
63260;DHT22;49390;51.380;0.098;2022-10-22T16:46:35;16.60;99.90
63260;DHT22;49390;51.380;0.098;2022-10-22T16:49:07;16.50;99.90
63260;DHT22;49390;51.380;0.098;2022-10-22T16:51:35;16.50;99.90
63260;DHT22;49390;51.380;0.098;2022-10-22T16:54:03;16.40;99.90
63260;DHT22;49390;51.380;0.098;2022-10-22T16:56:36;16.40;99.90
63260;DHT22;49390;51.380;0.098;2022-10-22T16:59:05;16.40;99.90
63260;DHT22;49390;51.380;0.098;2022-10-22T17:01:33;16.30;99.90
63260;DHT22;49390;51.380;0.098;2022-10-22T17:04:08;16.30;99.90
63260;DHT22;49390;51.380;0.098;2022-10-22T17:06:37;16.30;99.90
63260;DHT22;49390;51.380;0.098;2022-10-22T17:09:05;16.20;99.90
63260;DHT22;49390;51.380;0.098;2022-10-22T17:11:33;16.20;99.90
63260;DHT22;49390;51.380;0.098;2022-10-22T17:14:06;16.20;99.90
63260;DHT22;49390;51.380;0.098;2022-10-22T17:16:34;16.20;99.90
63260;DHT22;49390;51.380;0.098;2022-10-22T17:19:03;16.20;99.90
63260;DHT22;49390;51.380;0.098;2022-10-22T17:21:32;16.10;99.90
63260;DHT22;49390;51.380;0.098;2022-10-22T17:24:01;16.10;99.90
63260;DHT22;49390;51.380;0.098;2022-10-22T17:26:29;16.10;99.90
63260;DHT22;49390;51.380;0.098;2022-10-22T17:28:59;16.10;99.90
63260;DHT22;49390;51.380;0.098;2022-10-22T17:31:30;16.00;99.90
63260;DHT22;49390;51.380;0.098;2022-10-22T17:33:59;16.00;99.90
63260;DHT22;49390;51.380;0.098;2022-10-22T17:36:28;16.00;99.90
63260;DHT22;49390;51.380;0.098;2022-10-22T17:39:06;15.90;99.90
63260;DHT22;49390;51.380;0.098;2022-10-22T17:41:36;15.90;99.90
63260;DHT22;49390;51.380;0.098;2022-10-22T17:44:06;15.90;99.90
63260;DHT22;49390;51.380;0.098;2022-10-22T17:46:47;15.80;99.90
63260;DHT22;49390;51.380;0.098;2022-10-22T17:49:19;15.80;99.90